Bexhill, United Kingdom
Current Conditions -  °F | °C
As of 5:20 AM on Monday 20 Oct 2014 (Local Time) from EGKK Reporting Station
Overcast Overcast  
Wind Chill: 55°   Ceiling: 1900
Heat Index: 55°   Visibility: 6mi
Dew Point: 52°   Wind: 8mph
Humidity: 88%   Direction: 230°SW
Pressure: 30.03"   Gusts: NA
Location:  50.85°N, 0.47°E
Report Text: EGKK 200420Z 23007KT 9999 OVC019 13/11 Q1017
Loading
Personal Weather Stations






























Interactive Weather Map New forecast layout! Learn more

10-Day Weather Forecast

Advertisements
Track Severe Weather on mobile